レゾリュート の空港の天気 - METARとTAF

レゾリュート空港 ( CYRB / YRB ) - カナダ ヌナブト準州レゾリュート
飛行場実況気象(Metar)
観測時間01/22 21:00 CST (01/23 03:00 UTC)
風向・風速西北西 11m/s
視程800m
天気現象高い地吹雪 弱い雪
全天を覆う雲 雲底高度 730m
気温-22℃
湿度77%
気圧1019.4hPa
METARCYRB 230300Z 30022KT 1/2SM R35/3000V4500FT/D -SN BLSN OVC024 M22/M25 A3006 RMK BLSN3SC5 SLP194
過去の天気等 Google飛行場航空写真 Wunderground天気予報

過去48時間のMETAR

飛行場予報(TAF)
発表時間: 1/22 22:35 CST (1/23 04:35 UTC)
予報対象時間: 22日22時 CST ~ 23日18時 CST
風向・風速西北西 10m/s 瞬間風速 15m/s
視程1,210m
天気現象弱い雪 高い地吹雪
全天を覆う雲 雲底高度 610m
22日22時 CST ~ 22日24時 CST に一時的に
視程10km以上
天気現象弱い雪
全天の8割程度の雲 雲底高度 910m
22日22時 CST ~ 22日24時 CST に徐々に
風向・風速西北西 8m/s
23日0時 CST から
風向・風速北北西 4m/s
視程10km以上
天気現象細氷
全天の4割程度の雲 雲底高度 610m
23日0時 CST ~ 23日6時 CST に一時的に
視程4,830m
天気現象弱い雪
全天の8割程度の雲 雲底高度 610m
23日6時 CST から
風向・風速北北西 6m/s
視程10km以上
天気現象細氷
少しの雲 雲底高度 610m
23日6時 CST ~ 23日18時 CST に一時的に
視程8,050m
天気現象細氷
TAF AMD CYRB 230435Z 2304/2324 30020G30KT 3/4SM -SN BLSN OVC020
TEMPO 2304/2306 6SM -SN BKN030
BECMG 2304/2306 30015KT
FM230600 33008KT P6SM IC SCT020
TEMPO 2306/2312 3SM -SN BKN020
FM231200 34012KT P6SM IC FEW020
TEMPO 2312/2324 5SM IC RMK NXT FCST BY 230600Z